createdAt,value
2019-06-26T00:02:26.124Z,83.10
2019-06-26T00:04:53.516Z,83.30
2019-06-26T00:07:20.971Z,83.50
2019-06-26T00:09:48.384Z,83.80
2019-06-26T00:12:15.713Z,83.90
2019-06-26T00:14:43.059Z,83.90
2019-06-26T00:17:10.421Z,84.00
2019-06-26T00:19:37.810Z,84.00
2019-06-26T00:22:05.149Z,84.10
2019-06-26T00:24:32.583Z,84.20
2019-06-26T00:26:59.928Z,84.40
2019-06-26T00:29:27.366Z,83.90
2019-06-26T00:31:55.107Z,83.60
2019-06-26T00:34:22.555Z,83.90
2019-06-26T00:36:50.055Z,83.90
2019-06-26T00:39:17.659Z,84.40
2019-06-26T00:41:45.082Z,84.70
2019-06-26T00:44:12.443Z,84.40
2019-06-26T00:46:39.777Z,84.20
2019-06-26T00:49:07.063Z,84.20
2019-06-26T00:51:34.403Z,84.20
2019-06-26T00:54:01.735Z,84.40
2019-06-26T00:56:29.170Z,85.00
2019-06-26T00:58:56.575Z,84.90
2019-06-26T01:01:23.913Z,85.10
2019-06-26T01:03:53.027Z,84.80
2019-06-26T01:06:38.613Z,84.40
2019-06-26T01:09:06.373Z,84.50
2019-06-26T01:11:33.809Z,84.40
2019-06-26T01:14:01.162Z,84.50
2019-06-26T01:16:28.632Z,84.40
2019-06-26T01:18:55.956Z,84.50
2019-06-26T01:21:23.378Z,85.10
2019-06-26T01:23:50.698Z,85.50
2019-06-26T01:26:17.988Z,85.50
2019-06-26T01:28:45.426Z,86.10
2019-06-26T01:31:12.731Z,86.30
2019-06-26T01:33:40.153Z,86.40
2019-06-26T01:36:07.471Z,86.40
2019-06-26T01:38:34.940Z,86.40
2019-06-26T01:41:02.253Z,85.90
2019-06-26T01:43:29.558Z,85.30
2019-06-26T01:45:56.852Z,84.90
2019-06-26T01:48:24.204Z,84.90
2019-06-26T01:50:51.602Z,84.80
2019-06-26T01:53:18.970Z,84.60
2019-06-26T01:55:46.289Z,84.20
2019-06-26T01:58:13.573Z,83.90
2019-06-26T02:00:40.936Z,83.80
2019-06-26T02:03:08.201Z,83.80
2019-06-26T02:05:35.548Z,84.00
2019-06-26T02:08:02.974Z,84.20
2019-06-26T02:10:30.370Z,84.90
2019-06-26T02:12:57.685Z,85.60
2019-06-26T02:15:25.116Z,85.80
2019-06-26T02:17:52.430Z,85.80
2019-06-26T02:20:20.131Z,85.80
2019-06-26T02:22:49.530Z,86.10
2019-06-26T02:25:17.025Z,86.10
2019-06-26T02:27:44.536Z,85.60
2019-06-26T02:30:12.028Z,85.20
2019-06-26T02:32:39.655Z,84.70
2019-06-26T02:35:09.885Z,84.60
2019-06-26T02:37:36.304Z,84.90
2019-06-26T02:40:04.380Z,84.50
2019-06-26T02:42:31.905Z,84.20
2019-06-26T02:44:59.193Z,84.70
2019-06-26T02:47:26.846Z,85.30
2019-06-26T02:49:54.482Z,85.50
2019-06-26T02:52:21.808Z,85.60
2019-06-26T02:54:49.137Z,84.40
2019-06-26T02:57:16.555Z,83.90
2019-06-26T02:59:43.850Z,83.80
2019-06-26T03:02:11.295Z,83.70
2019-06-26T03:04:38.682Z,84.80
2019-06-26T03:07:06.002Z,84.90
2019-06-26T03:09:33.303Z,85.10
2019-06-26T03:12:00.654Z,85.30
2019-06-26T03:14:28.062Z,84.90
2019-06-26T03:16:55.854Z,84.60
2019-06-26T03:19:23.241Z,84.40
2019-06-26T03:21:50.557Z,84.40
2019-06-26T03:24:17.959Z,84.80
2019-06-26T03:26:45.340Z,84.50
2019-06-26T03:29:12.734Z,84.70
2019-06-26T03:31:40.157Z,84.30
2019-06-26T03:34:07.637Z,84.60
2019-06-26T03:36:35.010Z,84.60
2019-06-26T03:39:04.262Z,84.30
2019-06-26T03:41:31.547Z,85.00
2019-06-26T03:43:58.877Z,84.60
2019-06-26T03:46:26.288Z,84.70
2019-06-26T03:48:53.696Z,84.50
2019-06-26T03:51:20.995Z,84.60
2019-06-26T03:53:48.312Z,84.60
2019-06-26T03:56:15.722Z,84.40
2019-06-26T03:58:43.051Z,84.90
2019-06-26T04:01:10.706Z,85.40
2019-06-26T04:03:38.108Z,85.40
2019-06-26T04:06:05.551Z,86.10
2019-06-26T04:08:32.943Z,86.60
2019-06-26T04:11:00.378Z,86.80
2019-06-26T04:13:27.797Z,86.70
2019-06-26T04:15:55.123Z,86.80
2019-06-26T04:18:22.566Z,86.80
2019-06-26T04:20:49.919Z,86.70
2019-06-26T04:23:17.264Z,86.40
2019-06-26T04:25:44.605Z,86.30
2019-06-26T04:28:11.939Z,86.20
2019-06-26T04:30:39.369Z,86.30
2019-06-26T04:33:06.667Z,86.90
2019-06-26T04:35:34.053Z,87.10
2019-06-26T04:38:01.418Z,87.10
2019-06-26T04:40:29.066Z,87.50
2019-06-26T04:42:56.523Z,87.90
2019-06-26T04:45:23.890Z,87.80
2019-06-26T04:47:51.213Z,88.00
2019-06-26T04:50:21.297Z,87.60
2019-06-26T04:52:48.675Z,87.70
2019-06-26T04:55:16.052Z,87.80
2019-06-26T04:57:43.481Z,87.90
2019-06-26T05:00:11.310Z,87.50
2019-06-26T05:02:38.642Z,87.70
2019-06-26T05:05:06.437Z,87.60
2019-06-26T05:07:34.167Z,87.60
2019-06-26T05:10:01.586Z,87.50
2019-06-26T05:12:29.046Z,86.80
2019-06-26T05:14:56.707Z,86.60
2019-06-26T05:17:24.449Z,86.50
2019-06-26T05:19:51.783Z,86.90
2019-06-26T05:22:19.113Z,87.60
2019-06-26T05:24:46.666Z,87.70
2019-06-26T05:27:14.170Z,87.50
2019-06-26T05:29:41.550Z,87.00
2019-06-26T05:32:08.868Z,87.70
2019-06-26T05:34:36.285Z,88.20
2019-06-26T05:37:04.104Z,88.20
2019-06-26T05:39:31.836Z,88.40
2019-06-26T05:41:59.273Z,88.10
2019-06-26T05:44:26.615Z,88.60
2019-06-26T05:46:54.032Z,88.60
2019-06-26T05:49:21.372Z,88.30
2019-06-26T05:51:48.672Z,88.40
2019-06-26T05:54:16.132Z,89.30
2019-06-26T05:56:45.445Z,89.00
2019-06-26T05:59:12.664Z,88.90
2019-06-26T06:01:39.985Z,88.10
2019-06-26T06:04:07.337Z,88.00
2019-06-26T06:06:41.741Z,89.00
2019-06-26T06:09:05.393Z,88.20
2019-06-26T06:11:32.744Z,87.70
2019-06-26T06:14:00.080Z,88.00
2019-06-26T06:16:27.558Z,88.80
2019-06-26T06:18:55.045Z,88.30
2019-06-26T06:21:22.416Z,88.10
2019-06-26T06:23:49.790Z,87.80
2019-06-26T06:26:17.214Z,87.20
2019-06-26T06:28:44.614Z,87.40
2019-06-26T06:31:12.004Z,86.60
2019-06-26T06:33:39.646Z,86.80
2019-06-26T06:36:09.642Z,87.30
2019-06-26T06:38:36.419Z,86.60
2019-06-26T06:41:03.874Z,86.20
2019-06-26T06:43:31.405Z,86.10
2019-06-26T06:45:59.798Z,85.50
2019-06-26T06:48:27.271Z,84.90
2019-06-26T06:50:54.935Z,85.00
2019-06-26T06:53:24.634Z,85.10
2019-06-26T06:55:51.971Z,85.10
2019-06-26T06:58:20.294Z,84.90
2019-06-26T07:00:48.055Z,85.20
2019-06-26T07:03:16.724Z,84.70
2019-06-26T07:05:44.119Z,84.70
2019-06-26T07:08:11.507Z,83.50
2019-06-26T07:10:40.238Z,83.60
2019-06-26T07:13:08.396Z,84.10
2019-06-26T07:15:35.827Z,84.40
2019-06-26T07:18:03.544Z,83.90
2019-06-26T07:20:30.992Z,82.70
2019-06-26T07:22:58.687Z,83.20
2019-06-26T07:25:26.102Z,82.90
2019-06-26T07:27:53.507Z,82.50
2019-06-26T07:30:21.738Z,81.80
2019-06-26T07:32:49.282Z,81.80
2019-06-26T07:35:16.600Z,81.10
2019-06-26T07:37:43.874Z,80.60
2019-06-26T07:40:11.516Z,81.50
2019-06-26T07:42:38.810Z,80.50
2019-06-26T07:45:06.910Z,79.80
2019-06-26T07:47:43.062Z,79.40
2019-06-26T07:50:03.924Z,77.90
2019-06-26T07:52:31.277Z,77.40
2019-06-26T07:54:58.730Z,78.20
2019-06-26T07:57:26.046Z,79.30
2019-06-26T07:59:53.391Z,78.70
2019-06-26T08:02:20.783Z,77.50
2019-06-26T08:04:48.586Z,76.20
2019-06-26T08:07:15.943Z,78.00
2019-06-26T08:09:43.631Z,77.80
2019-06-26T08:12:11.030Z,77.40
2019-06-26T08:14:38.484Z,76.00
2019-06-26T08:17:05.954Z,76.60
2019-06-26T08:19:33.375Z,76.30
2019-06-26T08:22:00.727Z,76.50
2019-06-26T08:24:28.126Z,76.10
2019-06-26T08:26:55.523Z,74.80
2019-06-26T08:29:22.890Z,75.10
2019-06-26T08:31:50.482Z,73.90
2019-06-26T08:34:18.029Z,73.30
2019-06-26T08:36:45.593Z,72.90
2019-06-26T08:39:13.361Z,72.80
2019-06-26T08:41:40.835Z,72.60
2019-06-26T08:44:08.310Z,72.60
2019-06-26T08:46:36.117Z,71.00
2019-06-26T08:49:03.625Z,71.60
2019-06-26T08:51:31.127Z,73.40
2019-06-26T08:53:58.661Z,70.80
2019-06-26T08:56:26.279Z,71.20
2019-06-26T08:58:53.849Z,71.20
2019-06-26T09:01:21.347Z,72.80
2019-06-26T09:03:48.820Z,72.90
2019-06-26T09:06:16.213Z,71.10
2019-06-26T09:08:43.649Z,72.20
2019-06-26T09:11:11.011Z,71.60
2019-06-26T09:13:38.472Z,72.30
2019-06-26T09:16:05.904Z,71.80
2019-06-26T09:18:35.879Z,72.00
2019-06-26T09:21:02.719Z,72.10
2019-06-26T09:23:32.473Z,71.50
2019-06-26T09:25:59.776Z,69.40
2019-06-26T09:28:27.232Z,70.40
2019-06-26T09:30:54.682Z,70.60
2019-06-26T09:33:22.018Z,70.90
2019-06-26T09:35:49.526Z,70.90
2019-06-26T09:38:17.027Z,70.80
2019-06-26T09:40:44.383Z,70.00
2019-06-26T09:43:11.695Z,69.50
2019-06-26T09:45:39.113Z,69.00
2019-06-26T09:48:09.397Z,69.30
2019-06-26T09:50:36.845Z,67.80
2019-06-26T09:53:05.564Z,67.70
2019-06-26T09:55:33.517Z,67.90
2019-06-26T09:58:01.299Z,68.80
2019-06-26T10:00:28.999Z,68.40
2019-06-26T10:02:56.409Z,67.10
2019-06-26T10:05:23.787Z,66.50
2019-06-26T10:07:51.267Z,66.80
2019-06-26T10:10:19.327Z,64.70
2019-06-26T10:12:46.918Z,65.90
2019-06-26T10:15:15.568Z,63.90
2019-06-26T10:17:43.073Z,64.30
2019-06-26T10:20:10.919Z,63.50
2019-06-26T10:22:38.445Z,63.30
2019-06-26T10:25:10.109Z,62.20
2019-06-26T10:27:35.816Z,62.60
2019-06-26T10:30:04.364Z,61.80
2019-06-26T10:32:32.894Z,61.20
2019-06-26T10:35:00.377Z,61.50
2019-06-26T10:37:27.857Z,59.40
2019-06-26T10:39:55.261Z,60.70
2019-06-26T10:42:23.218Z,59.50
2019-06-26T10:44:50.822Z,59.50
2019-06-26T10:47:18.276Z,58.30
2019-06-26T10:49:46.110Z,60.30
2019-06-26T10:52:13.570Z,59.60
2019-06-26T10:54:44.324Z,56.40
2019-06-26T10:57:16.793Z,56.60
2019-06-26T10:59:44.387Z,59.10
2019-06-26T11:02:11.871Z,55.00
2019-06-26T11:04:39.500Z,54.60
2019-06-26T11:07:06.925Z,58.00
2019-06-26T11:09:34.503Z,58.10
2019-06-26T11:12:01.938Z,57.30
2019-06-26T11:14:29.369Z,57.20
2019-06-26T11:16:56.929Z,55.30
2019-06-26T11:19:24.335Z,56.10
2019-06-26T11:21:52.134Z,52.40
2019-06-26T11:24:20.066Z,51.20
2019-06-26T11:26:47.634Z,51.80
2019-06-26T11:29:15.977Z,52.10
2019-06-26T11:31:43.759Z,49.30
2019-06-26T11:34:16.702Z,50.00
2019-06-26T11:37:02.721Z,48.40
2019-06-26T11:39:17.679Z,46.90
2019-06-26T11:41:45.111Z,46.50
2019-06-26T11:44:14.807Z,44.60
2019-06-26T11:46:42.176Z,44.10
2019-06-26T11:49:09.697Z,44.50
2019-06-26T11:51:37.238Z,39.50
2019-06-26T11:54:04.977Z,41.70
2019-06-26T11:56:32.485Z,41.90
2019-06-26T11:59:02.142Z,38.70
2019-06-26T12:01:29.662Z,37.10
2019-06-26T12:03:57.084Z,35.90
2019-06-26T12:06:24.536Z,33.90
2019-06-26T12:08:51.920Z,31.20
2019-06-26T12:11:19.365Z,27.70
2019-06-26T12:13:46.871Z,28.10
2019-06-26T12:16:14.322Z,26.50
2019-06-26T12:18:41.977Z,24.90
2019-06-26T12:21:09.792Z,25.20
2019-06-26T12:23:37.178Z,24.00
2019-06-26T12:26:04.606Z,22.60
2019-06-26T12:28:32.054Z,22.70
2019-06-26T12:30:59.915Z,22.00
2019-06-26T12:33:27.469Z,20.60
2019-06-26T12:35:54.897Z,22.50
2019-06-26T12:38:22.258Z,21.80
2019-06-26T12:40:49.717Z,22.00
2019-06-26T12:43:17.159Z,21.60
2019-06-26T12:45:44.694Z,21.80
2019-06-26T12:48:15.200Z,21.00
2019-06-26T12:50:41.526Z,21.30
2019-06-26T12:53:08.998Z,21.40
2019-06-26T12:55:36.482Z,20.40
2019-06-26T12:58:13.681Z,21.30
2019-06-26T13:00:33.335Z,20.80
2019-06-26T13:03:00.876Z,20.10
2019-06-26T13:05:28.383Z,20.30
2019-06-26T13:07:56.052Z,19.50
2019-06-26T13:10:23.787Z,21.80
2019-06-26T13:12:51.285Z,21.00
2019-06-26T13:15:18.974Z,21.50
2019-06-26T13:17:48.812Z,20.70
2019-06-26T13:20:16.719Z,19.80
2019-06-26T13:22:44.203Z,20.50
2019-06-26T13:25:15.749Z,20.30
2019-06-26T13:27:42.275Z,19.60
2019-06-26T13:30:10.287Z,19.70
2019-06-26T13:32:37.691Z,20.20
2019-06-26T13:35:06.081Z,20.20
2019-06-26T13:37:33.461Z,21.70
2019-06-26T13:40:00.788Z,20.90
2019-06-26T13:42:28.241Z,21.70
2019-06-26T13:44:55.617Z,21.60
2019-06-26T13:47:23.068Z,20.30
2019-06-26T13:49:50.545Z,19.40
2019-06-26T13:52:18.176Z,20.00
2019-06-26T13:54:45.644Z,19.50
2019-06-26T13:57:15.800Z,19.70
2019-06-26T13:59:42.370Z,19.00
2019-06-26T14:02:09.789Z,19.10
2019-06-26T14:04:38.400Z,19.60
2019-06-26T14:07:08.572Z,21.50
2019-06-26T14:09:35.023Z,22.40
2019-06-26T14:12:02.467Z,22.80
2019-06-26T14:14:52.641Z,23.30
2019-06-26T14:16:59.232Z,23.00
2019-06-26T14:19:26.977Z,23.10
2019-06-26T14:21:54.666Z,21.90
2019-06-26T14:24:22.124Z,22.20
2019-06-26T14:26:49.549Z,22.40
2019-06-26T14:29:21.023Z,20.80
2019-06-26T14:31:46.280Z,20.20
2019-06-26T14:34:13.729Z,19.80
2019-06-26T14:36:41.498Z,21.00
2019-06-26T14:39:08.865Z,21.90
2019-06-26T14:41:39.081Z,20.50
2019-06-26T14:44:05.643Z,21.10
2019-06-26T14:46:33.083Z,20.90
2019-06-26T14:49:00.553Z,20.60
2019-06-26T14:51:41.803Z,20.60
2019-06-26T14:53:57.206Z,21.20
2019-06-26T14:56:24.582Z,21.00
2019-06-26T14:58:51.973Z,19.10
2019-06-26T15:01:19.318Z,21.60
2019-06-26T15:03:47.105Z,19.60
2019-06-26T15:06:16.954Z,19.20
2019-06-26T15:08:44.362Z,19.20
2019-06-26T15:11:14.645Z,18.90
2019-06-26T15:13:41.527Z,19.50
2019-06-26T15:16:08.882Z,19.10
2019-06-26T15:18:36.268Z,18.60
2019-06-26T15:21:03.624Z,19.90
2019-06-26T15:23:31.283Z,21.30
2019-06-26T15:25:59.046Z,21.70
2019-06-26T15:28:26.387Z,18.90
2019-06-26T15:30:53.687Z,20.30
2019-06-26T15:33:21.131Z,20.30
2019-06-26T15:35:48.434Z,19.60
2019-06-26T15:38:16.281Z,18.80
2019-06-26T15:40:44.022Z,19.80
2019-06-26T15:43:11.339Z,20.80
2019-06-26T15:45:39.425Z,22.90
2019-06-26T15:48:06.892Z,23.30
2019-06-26T15:50:34.712Z,23.20
2019-06-26T15:53:02.456Z,26.50
2019-06-26T15:55:29.885Z,24.20
2019-06-26T15:57:57.289Z,26.10
2019-06-26T16:00:25.194Z,28.90
2019-06-26T16:02:52.512Z,31.60
2019-06-26T16:05:19.893Z,31.30
2019-06-26T16:07:47.320Z,28.90
2019-06-26T16:10:15.600Z,32.50
2019-06-26T16:12:42.958Z,35.00
2019-06-26T16:15:10.734Z,34.30
2019-06-26T16:18:03.614Z,37.80
2019-06-26T16:20:31.151Z,36.60
2019-06-26T16:22:58.651Z,36.80
2019-06-26T16:25:26.098Z,35.80
2019-06-26T16:28:04.716Z,38.70
2019-06-26T16:30:23.021Z,38.20
2019-06-26T16:32:50.416Z,38.90
2019-06-26T16:35:18.130Z,39.00
2019-06-26T16:37:45.584Z,41.40
2019-06-26T16:40:12.916Z,42.50
2019-06-26T16:42:40.374Z,43.90
2019-06-26T16:45:08.004Z,43.90
2019-06-26T16:47:35.328Z,45.00
2019-06-26T16:50:02.869Z,43.60
2019-06-26T16:52:30.312Z,44.20
2019-06-26T16:54:57.982Z,43.50
2019-06-26T16:57:25.385Z,42.30
2019-06-26T17:00:08.459Z,45.20
2019-06-26T17:02:22.068Z,44.10
2019-06-26T17:04:49.831Z,44.70
2019-06-26T17:07:17.147Z,44.50
2019-06-26T17:09:44.580Z,45.00
2019-06-26T17:12:11.985Z,45.60
2019-06-26T17:14:39.585Z,46.80
2019-06-26T17:17:07.126Z,45.90
2019-06-26T17:19:34.582Z,46.70
2019-06-26T17:22:02.160Z,48.00
2019-06-26T17:24:29.555Z,48.60
2019-06-26T17:26:59.360Z,49.40
2019-06-26T17:29:26.238Z,49.60
2019-06-26T17:31:53.673Z,49.10
2019-06-26T17:34:21.179Z,49.80
2019-06-26T17:36:48.570Z,50.00
2019-06-26T17:39:15.974Z,50.70
2019-06-26T17:41:44.179Z,51.40
2019-06-26T17:44:11.883Z,51.80
2019-06-26T17:46:39.262Z,52.30
2019-06-26T17:49:06.710Z,53.20
2019-06-26T17:51:34.280Z,54.30
2019-06-26T17:54:02.077Z,55.70
2019-06-26T17:56:29.570Z,56.60
2019-06-26T17:58:57.052Z,57.40
2019-06-26T18:01:24.481Z,58.10
2019-06-26T18:03:52.003Z,59.20
2019-06-26T18:06:19.490Z,59.80
2019-06-26T18:08:47.253Z,60.40
2019-06-26T18:11:14.579Z,60.80
2019-06-26T18:13:41.961Z,61.60
2019-06-26T18:16:09.343Z,62.00
2019-06-26T18:18:36.838Z,62.90
2019-06-26T18:21:05.663Z,61.60
2019-06-26T18:23:38.032Z,62.40
2019-06-26T18:26:12.316Z,61.70
2019-06-26T18:28:32.056Z,62.90
2019-06-26T18:30:59.591Z,64.00
2019-06-26T18:33:26.975Z,64.90
2019-06-26T18:35:54.828Z,65.30
2019-06-26T18:38:22.272Z,65.40
2019-06-26T18:40:49.768Z,65.60
2019-06-26T18:43:17.256Z,66.00
2019-06-26T18:45:44.800Z,65.90
2019-06-26T18:48:12.153Z,66.70
2019-06-26T18:50:39.721Z,67.50
2019-06-26T18:53:07.340Z,66.80
2019-06-26T18:55:34.855Z,65.70
2019-06-26T18:58:02.420Z,66.20
2019-06-26T19:00:29.912Z,66.40
2019-06-26T19:02:57.417Z,67.30
2019-06-26T19:05:25.357Z,68.10
2019-06-26T19:07:53.374Z,67.70
2019-06-26T19:10:21.676Z,68.20
2019-06-26T19:12:49.151Z,68.30
2019-06-26T19:15:16.717Z,69.00
2019-06-26T19:17:44.285Z,69.80
2019-06-26T19:20:13.299Z,69.80
2019-06-26T19:22:40.732Z,69.10
2019-06-26T19:25:09.139Z,67.70
2019-06-26T19:27:36.644Z,67.80
2019-06-26T19:30:05.372Z,67.70
2019-06-26T19:32:37.170Z,68.30
2019-06-26T19:35:08.193Z,68.90
2019-06-26T19:37:32.530Z,69.20
2019-06-26T19:40:00.373Z,70.20
2019-06-26T19:42:28.224Z,70.90
2019-06-26T19:44:55.894Z,71.40
2019-06-26T19:47:23.550Z,71.70
2019-06-26T19:49:51.301Z,71.70
2019-06-26T19:52:18.889Z,69.80
2019-06-26T19:54:46.489Z,69.00
2019-06-26T19:57:14.133Z,69.00
2019-06-26T19:59:41.641Z,68.10
2019-06-26T20:02:09.142Z,67.50
2019-06-26T20:04:36.675Z,68.20
2019-06-26T20:07:04.796Z,68.30
2019-06-26T20:09:32.326Z,69.80
2019-06-26T20:11:59.795Z,70.00
2019-06-26T20:14:27.754Z,70.00
2019-06-26T20:16:55.209Z,70.30
2019-06-26T20:19:22.761Z,70.30
2019-06-26T20:21:50.732Z,70.30
2019-06-26T20:24:18.150Z,70.50
2019-06-26T20:26:45.684Z,70.80
2019-06-26T20:29:13.207Z,71.00
2019-06-26T20:31:40.701Z,71.10
2019-06-26T20:34:08.412Z,71.60
2019-06-26T20:36:35.920Z,72.10
2019-06-26T20:39:04.310Z,72.20
2019-06-26T20:41:31.809Z,72.20
2019-06-26T20:43:59.338Z,72.30
2019-06-26T20:46:26.832Z,72.50
2019-06-26T20:48:56.129Z,72.70
2019-06-26T20:51:23.473Z,72.90
2019-06-26T20:53:51.035Z,73.00
2019-06-26T20:56:18.507Z,73.00
2019-06-26T20:58:45.983Z,71.80
2019-06-26T21:01:13.438Z,71.40
2019-06-26T21:03:40.894Z,70.90
2019-06-26T21:06:08.369Z,70.70
2019-06-26T21:08:35.772Z,71.40
2019-06-26T21:11:03.183Z,71.90
2019-06-26T21:13:30.626Z,71.90
2019-06-26T21:15:58.209Z,72.20
2019-06-26T21:18:25.684Z,72.80
2019-06-26T21:20:53.167Z,73.30
2019-06-26T21:23:23.331Z,73.60
2019-06-26T21:25:50.287Z,73.60
2019-06-26T21:28:17.914Z,73.60
2019-06-26T21:30:45.352Z,73.60
2019-06-26T21:33:12.752Z,74.10
2019-06-26T21:35:40.185Z,74.30
2019-06-26T21:38:07.606Z,74.20
2019-06-26T21:40:34.992Z,74.90
2019-06-26T21:43:02.747Z,75.20
2019-06-26T21:45:30.507Z,75.20
2019-06-26T21:47:57.946Z,74.90
2019-06-26T21:50:28.714Z,75.00
2019-06-26T21:52:57.831Z,75.40
2019-06-26T21:55:34.303Z,75.90
2019-06-26T21:57:54.940Z,76.30
2019-06-26T22:00:22.860Z,76.60
2019-06-26T22:02:50.323Z,76.40
2019-06-26T22:05:17.847Z,76.70
2019-06-26T22:07:45.276Z,76.70
2019-06-26T22:10:12.714Z,76.60
2019-06-26T22:12:40.353Z,76.60
2019-06-26T22:15:08.538Z,76.70
2019-06-26T22:17:36.261Z,76.60
2019-06-26T22:20:08.064Z,77.10
2019-06-26T22:22:34.220Z,77.50
2019-06-26T22:25:01.686Z,77.10
2019-06-26T22:27:29.483Z,77.10
2019-06-26T22:29:56.879Z,77.30
2019-06-26T22:32:24.281Z,77.50
2019-06-26T22:34:51.726Z,77.60
2019-06-26T22:37:19.223Z,77.70
2019-06-26T22:39:46.741Z,77.50
2019-06-26T22:42:14.222Z,77.50
2019-06-26T22:44:41.487Z,77.80
2019-06-26T22:47:08.869Z,78.20
2019-06-26T22:49:36.350Z,78.20
2019-06-26T22:52:03.907Z,77.90
2019-06-26T22:54:31.372Z,77.80
2019-06-26T22:56:58.930Z,78.00
2019-06-26T22:59:26.238Z,78.10
2019-06-26T23:01:53.578Z,78.20
2019-06-26T23:04:20.882Z,78.40
2019-06-26T23:06:48.326Z,78.20
2019-06-26T23:09:15.627Z,78.10
2019-06-26T23:11:43.086Z,78.80
2019-06-26T23:14:10.438Z,79.40
2019-06-26T23:16:38.020Z,79.50
2019-06-26T23:19:07.954Z,79.30
2019-06-26T23:21:35.331Z,79.40
2019-06-26T23:24:02.815Z,79.90
2019-06-26T23:26:30.400Z,79.80
2019-06-26T23:29:00.883Z,80.00
2019-06-26T23:31:28.778Z,80.50
2019-06-26T23:33:56.172Z,80.20
2019-06-26T23:36:23.513Z,79.90
2019-06-26T23:38:51.060Z,80.10
2019-06-26T23:41:18.533Z,80.20
2019-06-26T23:43:48.026Z,80.20
2019-06-26T23:46:15.606Z,80.40
2019-06-26T23:48:45.680Z,80.30
2019-06-26T23:51:12.384Z,80.20
2019-06-26T23:53:39.836Z,80.70
2019-06-26T23:56:07.633Z,80.90
2019-06-26T23:58:35.318Z,80.70
